sensor_id;sensor_type;location;lat;lon;timestamp;pressure;altitude;pressure_sealevel;temperature;humidity
21359;BME280;13506;50.852;20.632;2023-09-18T00:02:01;98457.28;;;17.72;100.00
21359;BME280;13506;50.852;20.632;2023-09-18T00:04:31;98452.81;;;17.73;100.00
21359;BME280;13506;50.852;20.632;2023-09-18T00:07:01;98438.41;;;17.67;100.00
21359;BME280;13506;50.852;20.632;2023-09-18T00:09:29;98446.44;;;17.57;100.00
21359;BME280;13506;50.852;20.632;2023-09-18T00:11:57;98444.78;;;17.56;100.00
21359;BME280;13506;50.852;20.632;2023-09-18T00:14:25;98437.31;;;17.34;100.00
21359;BME280;13506;50.852;20.632;2023-09-18T00:16:54;98448.50;;;17.46;100.00
21359;BME280;13506;50.852;20.632;2023-09-18T00:19:24;98447.81;;;17.08;100.00
21359;BME280;13506;50.852;20.632;2023-09-18T00:21:54;98442.31;;;17.19;100.00
21359;BME280;13506;50.852;20.632;2023-09-18T00:24:23;98438.97;;;17.17;100.00
21359;BME280;13506;50.852;20.632;2023-09-18T00:26:52;98438.75;;;17.28;100.00
21359;BME280;13506;50.852;20.632;2023-09-18T00:29:20;98442.59;;;17.34;100.00
21359;BME280;13506;50.852;20.632;2023-09-18T00:31:48;98452.66;;;17.30;100.00
21359;BME280;13506;50.852;20.632;2023-09-18T00:34:17;98448.75;;;17.16;100.00
21359;BME280;13506;50.852;20.632;2023-09-18T00:36:45;98439.84;;;16.90;100.00
21359;BME280;13506;50.852;20.632;2023-09-18T00:39:14;98436.91;;;16.93;100.00
21359;BME280;13506;50.852;20.632;2023-09-18T00:41:42;98437.22;;;16.62;100.00
21359;BME280;13506;50.852;20.632;2023-09-18T00:44:15;98438.59;;;16.66;100.00
21359;BME280;13506;50.852;20.632;2023-09-18T00:46:44;98438.59;;;16.66;100.00
21359;BME280;13506;50.852;20.632;2023-09-18T00:49:12;98438.56;;;16.48;100.00
21359;BME280;13506;50.852;20.632;2023-09-18T00:51:41;98438.28;;;16.69;100.00
21359;BME280;13506;50.852;20.632;2023-09-18T00:54:09;98439.59;;;16.83;100.00
21359;BME280;13506;50.852;20.632;2023-09-18T00:56:39;98444.97;;;16.91;100.00
21359;BME280;13506;50.852;20.632;2023-09-18T00:59:07;98437.59;;;16.95;100.00
21359;BME280;13506;50.852;20.632;2023-09-18T01:01:36;98429.09;;;16.73;100.00
21359;BME280;13506;50.852;20.632;2023-09-18T01:04:05;98425.28;;;16.58;100.00
21359;BME280;13506;50.852;20.632;2023-09-18T01:06:34;98422.38;;;16.61;100.00
21359;BME280;13506;50.852;20.632;2023-09-18T01:09:03;98423.91;;;16.54;100.00
21359;BME280;13506;50.852;20.632;2023-09-18T01:11:49;98429.69;;;16.39;100.00
21359;BME280;13506;50.852;20.632;2023-09-18T01:14:23;98428.00;;;16.01;100.00
21359;BME280;13506;50.852;20.632;2023-09-18T01:16:56;98419.66;;;16.06;100.00
21359;BME280;13506;50.852;20.632;2023-09-18T01:19:37;98418.69;;;16.07;100.00
21359;BME280;13506;50.852;20.632;2023-09-18T01:22:07;98437.66;;;16.30;100.00
21359;BME280;13506;50.852;20.632;2023-09-18T01:24:38;98434.22;;;16.10;100.00
21359;BME280;13506;50.852;20.632;2023-09-18T01:27:09;98440.19;;;16.12;100.00
21359;BME280;13506;50.852;20.632;2023-09-18T01:29:37;98435.41;;;15.97;100.00
21359;BME280;13506;50.852;20.632;2023-09-18T01:32:06;98438.09;;;16.15;100.00
21359;BME280;13506;50.852;20.632;2023-09-18T01:34:36;98435.13;;;16.38;100.00
21359;BME280;13506;50.852;20.632;2023-09-18T01:37:07;98441.03;;;16.50;100.00
21359;BME280;13506;50.852;20.632;2023-09-18T01:39:39;98432.25;;;16.59;100.00
21359;BME280;13506;50.852;20.632;2023-09-18T01:42:08;98427.56;;;16.71;100.00
21359;BME280;13506;50.852;20.632;2023-09-18T01:44:37;98433.28;;;16.76;100.00
21359;BME280;13506;50.852;20.632;2023-09-18T01:47:07;98431.22;;;16.88;100.00
21359;BME280;13506;50.852;20.632;2023-09-18T01:49:38;98434.88;;;16.87;100.00
21359;BME280;13506;50.852;20.632;2023-09-18T01:52:08;98428.97;;;16.93;100.00
21359;BME280;13506;50.852;20.632;2023-09-18T01:54:38;98433.13;;;16.95;100.00
21359;BME280;13506;50.852;20.632;2023-09-18T01:57:06;98436.31;;;16.71;100.00
21359;BME280;13506;50.852;20.632;2023-09-18T01:59:35;98432.72;;;16.72;100.00
21359;BME280;13506;50.852;20.632;2023-09-18T02:02:04;98434.09;;;16.76;100.00
21359;BME280;13506;50.852;20.632;2023-09-18T02:04:34;98439.66;;;16.73;100.00
21359;BME280;13506;50.852;20.632;2023-09-18T02:07:02;98432.09;;;16.60;100.00
21359;BME280;13506;50.852;20.632;2023-09-18T02:09:30;98431.66;;;16.65;100.00
21359;BME280;13506;50.852;20.632;2023-09-18T02:12:00;98434.81;;;16.69;100.00
21359;BME280;13506;50.852;20.632;2023-09-18T02:14:29;98436.31;;;16.71;100.00
21359;BME280;13506;50.852;20.632;2023-09-18T02:16:58;98435.91;;;16.76;100.00
21359;BME280;13506;50.852;20.632;2023-09-18T02:19:26;98433.41;;;16.74;100.00
21359;BME280;13506;50.852;20.632;2023-09-18T02:21:56;98431.03;;;16.71;100.00
21359;BME280;13506;50.852;20.632;2023-09-18T02:24:25;98435.75;;;16.77;100.00
21359;BME280;13506;50.852;20.632;2023-09-18T02:26:55;98434.22;;;16.75;100.00
21359;BME280;13506;50.852;20.632;2023-09-18T02:29:24;98439.97;;;16.70;100.00
21359;BME280;13506;50.852;20.632;2023-09-18T02:31:53;98433.28;;;16.76;100.00
21359;BME280;13506;50.852;20.632;2023-09-18T02:34:21;98433.09;;;16.77;100.00
21359;BME280;13506;50.852;20.632;2023-09-18T02:36:50;98435.75;;;16.77;100.00
21359;BME280;13506;50.852;20.632;2023-09-18T02:39:18;98429.53;;;16.69;100.00
21359;BME280;13506;50.852;20.632;2023-09-18T02:41:46;98428.47;;;16.61;100.00
21359;BME280;13506;50.852;20.632;2023-09-18T02:44:14;98425.00;;;16.61;100.00
21359;BME280;13506;50.852;20.632;2023-09-18T02:46:44;98424.03;;;16.62;100.00
21359;BME280;13506;50.852;20.632;2023-09-18T02:49:13;98423.06;;;16.63;100.00
21359;BME280;13506;50.852;20.632;2023-09-18T02:51:42;98420.69;;;16.60;100.00
21359;BME280;13506;50.852;20.632;2023-09-18T02:54:10;98414.72;;;16.58;100.00
21359;BME280;13506;50.852;20.632;2023-09-18T02:56:38;98415.09;;;16.35;100.00
21359;BME280;13506;50.852;20.632;2023-09-18T02:59:07;98412.19;;;16.38;100.00
21359;BME280;13506;50.852;20.632;2023-09-18T03:01:36;98421.06;;;16.37;100.00
21359;BME280;13506;50.852;20.632;2023-09-18T03:04:06;98414.16;;;16.36;100.00
21359;BME280;13506;50.852;20.632;2023-09-18T03:06:37;98424.31;;;16.31;100.00
21359;BME280;13506;50.852;20.632;2023-09-18T03:09:06;98421.00;;;16.29;100.00
21359;BME280;13506;50.852;20.632;2023-09-18T03:11:35;98416.09;;;16.34;100.00
21359;BME280;13506;50.852;20.632;2023-09-18T03:14:03;98416.78;;;16.36;100.00
21359;BME280;13506;50.852;20.632;2023-09-18T03:16:32;98424.31;;;16.31;100.00
21359;BME280;13506;50.852;20.632;2023-09-18T03:19:00;98415.28;;;16.34;100.00
21359;BME280;13506;50.852;20.632;2023-09-18T03:21:32;98417.22;;;16.32;100.00
21359;BME280;13506;50.852;20.632;2023-09-18T03:24:02;98420.38;;;16.35;100.00
21359;BME280;13506;50.852;20.632;2023-09-18T03:26:31;98409.81;;;16.35;100.00
21359;BME280;13506;50.852;20.632;2023-09-18T03:28:59;98419.03;;;16.31;100.00
21359;BME280;13506;50.852;20.632;2023-09-18T03:31:27;98421.06;;;16.37;100.00
21359;BME280;13506;50.852;20.632;2023-09-18T03:33:57;98417.63;;;16.37;100.00
21359;BME280;13506;50.852;20.632;2023-09-18T03:36:28;98412.19;;;16.38;100.00
21359;BME280;13506;50.852;20.632;2023-09-18T03:38:57;98409.81;;;16.35;100.00
21359;BME280;13506;50.852;20.632;2023-09-18T03:41:26;98411.81;;;16.33;100.00
21359;BME280;13506;50.852;20.632;2023-09-18T03:43:54;98410.13;;;16.32;100.00
21359;BME280;13506;50.852;20.632;2023-09-18T03:46:23;98405.41;;;16.36;100.00
21359;BME280;13506;50.852;20.632;2023-09-18T03:48:50;98399.88;;;16.29;100.00
21359;BME280;13506;50.852;20.632;2023-09-18T03:51:19;98397.75;;;16.33;100.00
21359;BME280;13506;50.852;20.632;2023-09-18T03:53:47;98404.41;;;16.37;100.00
21359;BME280;13506;50.852;20.632;2023-09-18T03:56:17;98406.91;;;16.38;100.00
21359;BME280;13506;50.852;20.632;2023-09-18T03:58:45;98399.81;;;16.39;100.00
21359;BME280;13506;50.852;20.632;2023-09-18T04:01:16;98402.91;;;16.34;100.00
21359;BME280;13506;50.852;20.632;2023-09-18T04:03:44;98401.63;;;16.38;100.00
21359;BME280;13506;50.852;20.632;2023-09-18T04:06:13;98390.38;;;16.36;100.00
21359;BME280;13506;50.852;20.632;2023-09-18T04:08:41;98392.34;;;16.34;100.00
21359;BME280;13506;50.852;20.632;2023-09-18T04:11:10;98391.84;;;16.21;100.00
21359;BME280;13506;50.852;20.632;2023-09-18T04:13:40;98384.28;;;15.98;100.00
21359;BME280;13506;50.852;20.632;2023-09-18T04:16:08;98382.38;;;15.81;100.00
21359;BME280;13506;50.852;20.632;2023-09-18T04:18:37;98377.13;;;15.71;100.00
21359;BME280;13506;50.852;20.632;2023-09-18T04:21:06;98390.31;;;15.81;100.00
21359;BME280;13506;50.852;20.632;2023-09-18T04:23:34;98399.78;;;15.64;100.00
21359;BME280;13506;50.852;20.632;2023-09-18T04:26:03;98396.06;;;15.47;100.00
21359;BME280;13506;50.852;20.632;2023-09-18T04:28:31;98388.28;;;15.16;100.00
21359;BME280;13506;50.852;20.632;2023-09-18T04:31:01;98393.56;;;15.16;100.00
21359;BME280;13506;50.852;20.632;2023-09-18T04:33:29;98394.50;;;15.25;100.00
21359;BME280;13506;50.852;20.632;2023-09-18T04:35:58;98390.22;;;15.14;100.00
21359;BME280;13506;50.852;20.632;2023-09-18T04:38:26;98395.63;;;15.22;100.00
21359;BME280;13506;50.852;20.632;2023-09-18T04:40:59;98399.66;;;15.27;100.00
21359;BME280;13506;50.852;20.632;2023-09-18T04:43:27;98399.81;;;15.15;100.00
21359;BME280;13506;50.852;20.632;2023-09-18T04:45:57;98393.00;;;15.22;100.00
21359;BME280;13506;50.852;20.632;2023-09-18T04:48:27;98391.75;;;15.27;100.00
21359;BME280;13506;50.852;20.632;2023-09-18T04:50:55;98392.59;;;15.17;100.00
21359;BME280;13506;50.852;20.632;2023-09-18T04:53:23;98393.16;;;15.31;100.00
21359;BME280;13506;50.852;20.632;2023-09-18T04:55:52;98385.78;;;14.95;100.00
21359;BME280;13506;50.852;20.632;2023-09-18T04:58:21;98373.75;;;14.83;100.00
21359;BME280;13506;50.852;20.632;2023-09-18T05:00:54;98376.66;;;14.90;100.00
21359;BME280;13506;50.852;20.632;2023-09-18T05:03:23;98376.78;;;15.17;100.00
21359;BME280;13506;50.852;20.632;2023-09-18T05:05:53;98376.50;;;15.50;100.00
21359;BME280;13506;50.852;20.632;2023-09-18T05:08:20;98381.28;;;15.74;100.00
21359;BME280;13506;50.852;20.632;2023-09-18T05:10:49;98369.75;;;15.85;100.00
21359;BME280;13506;50.852;20.632;2023-09-18T05:13:17;98371.63;;;16.02;100.00
21359;BME280;13506;50.852;20.632;2023-09-18T05:15:45;98377.25;;;16.17;100.00
21359;BME280;13506;50.852;20.632;2023-09-18T05:18:13;98377.28;;;16.07;100.00
21359;BME280;13506;50.852;20.632;2023-09-18T05:20:42;98368.94;;;16.39;100.00
21359;BME280;13506;50.852;20.632;2023-09-18T05:23:11;98373.00;;;16.61;100.00
21359;BME280;13506;50.852;20.632;2023-09-18T05:25:41;98368.53;;;16.62;100.00
21359;BME280;13506;50.852;20.632;2023-09-18T05:28:10;98367.44;;;16.82;100.00
21359;BME280;13506;50.852;20.632;2023-09-18T05:30:38;98360.66;;;16.80;100.00
21359;BME280;13506;50.852;20.632;2023-09-18T05:33:07;98374.66;;;16.62;100.00
21359;BME280;13506;50.852;20.632;2023-09-18T05:35:39;98371.25;;;16.52;100.00
21359;BME280;13506;50.852;20.632;2023-09-18T05:38:07;98374.41;;;16.56;100.00
21359;BME280;13506;50.852;20.632;2023-09-18T05:40:38;98378.94;;;16.46;100.00
21359;BME280;13506;50.852;20.632;2023-09-18T05:43:06;98364.84;;;15.99;100.00
21359;BME280;13506;50.852;20.632;2023-09-18T05:45:35;98365.56;;;16.19;100.00
21359;BME280;13506;50.852;20.632;2023-09-18T05:48:03;98361.81;;;16.22;100.00
21359;BME280;13506;50.852;20.632;2023-09-18T05:50:33;98356.75;;;16.38;100.00
21359;BME280;13506;50.852;20.632;2023-09-18T05:53:01;98352.28;;;16.39;100.00
21359;BME280;13506;50.852;20.632;2023-09-18T05:55:32;98348.91;;;16.64;100.00
21359;BME280;13506;50.852;20.632;2023-09-18T05:58:02;98357.69;;;16.65;100.00
21359;BME280;13506;50.852;20.632;2023-09-18T06:00:31;98346.13;;;17.02;100.00
21359;BME280;13506;50.852;20.632;2023-09-18T06:02:59;98345.59;;;17.34;100.00
21359;BME280;13506;50.852;20.632;2023-09-18T06:05:28;98345.84;;;17.49;100.00
21359;BME280;13506;50.852;20.632;2023-09-18T06:07:57;98354.31;;;17.53;100.00
21359;BME280;13506;50.852;20.632;2023-09-18T06:10:26;98336.44;;;18.07;100.00
21359;BME280;13506;50.852;20.632;2023-09-18T06:12:54;98330.78;;;18.02;100.00
21359;BME280;13506;50.852;20.632;2023-09-18T06:15:23;98340.41;;;18.03;100.00
21359;BME280;13506;50.852;20.632;2023-09-18T06:17:51;98336.00;;;18.20;100.00
21359;BME280;13506;50.852;20.632;2023-09-18T06:20:20;98336.09;;;17.76;100.00
21359;BME280;13506;50.852;20.632;2023-09-18T06:22:48;98336.13;;;17.50;100.00
21359;BME280;13506;50.852;20.632;2023-09-18T06:25:16;98344.00;;;17.41;100.00
21359;BME280;13506;50.852;20.632;2023-09-18T06:27:45;98331.59;;;18.02;100.00
21359;BME280;13506;50.852;20.632;2023-09-18T06:30:14;98339.66;;;18.27;100.00
21359;BME280;13506;50.852;20.632;2023-09-18T06:32:43;98335.34;;;18.77;100.00
21359;BME280;13506;50.852;20.632;2023-09-18T06:35:12;98336.16;;;18.77;100.00
21359;BME280;13506;50.852;20.632;2023-09-18T06:37:39;98342.94;;;18.80;100.00
21359;BME280;13506;50.852;20.632;2023-09-18T06:40:09;98344.13;;;19.18;99.52
21359;BME280;13506;50.852;20.632;2023-09-18T06:42:37;98344.78;;;19.45;98.29
21359;BME280;13506;50.852;20.632;2023-09-18T06:45:07;98345.41;;;19.72;97.05
21359;BME280;13506;50.852;20.632;2023-09-18T06:47:35;98343.34;;;19.98;95.43
21359;BME280;13506;50.852;20.632;2023-09-18T06:50:06;98340.59;;;20.23;93.28
21359;BME280;13506;50.852;20.632;2023-09-18T06:52:34;98329.22;;;20.68;92.74
21359;BME280;13506;50.852;20.632;2023-09-18T06:55:02;98341.88;;;20.66;88.73
21359;BME280;13506;50.852;20.632;2023-09-18T06:57:31;98334.56;;;21.15;88.77
21359;BME280;13506;50.852;20.632;2023-09-18T07:00:01;98346.91;;;21.45;87.96
21359;BME280;13506;50.852;20.632;2023-09-18T07:02:31;98343.41;;;21.83;85.52
21359;BME280;13506;50.852;20.632;2023-09-18T07:04:59;98340.88;;;21.14;84.18
21359;BME280;13506;50.852;20.632;2023-09-18T07:07:28;98345.09;;;20.54;87.23
21359;BME280;13506;50.852;20.632;2023-09-18T07:09:57;98332.59;;;20.62;84.96
21359;BME280;13506;50.852;20.632;2023-09-18T07:12:25;98338.41;;;20.89;85.54
21359;BME280;13506;50.852;20.632;2023-09-18T07:14:55;98336.78;;;21.26;83.99
21359;BME280;13506;50.852;20.632;2023-09-18T07:17:22;98340.25;;;21.94;82.57
21359;BME280;13506;50.852;20.632;2023-09-18T07:19:51;98342.81;;;22.17;80.16
21359;BME280;13506;50.852;20.632;2023-09-18T07:22:19;98347.94;;;22.34;79.93
21359;BME280;13506;50.852;20.632;2023-09-18T07:24:49;98347.44;;;22.08;79.53
21359;BME280;13506;50.852;20.632;2023-09-18T07:27:16;98346.09;;;22.34;79.39
21359;BME280;13506;50.852;20.632;2023-09-18T07:29:45;98336.94;;;22.52;77.78
21359;BME280;13506;50.852;20.632;2023-09-18T07:32:13;98346.72;;;22.87;78.24
21359;BME280;13506;50.852;20.632;2023-09-18T07:34:41;98335.44;;;23.07;77.64
21359;BME280;13506;50.852;20.632;2023-09-18T07:37:09;98336.94;;;23.16;73.87
21359;BME280;13506;50.852;20.632;2023-09-18T07:39:38;98340.09;;;23.55;75.00
21359;BME280;13506;50.852;20.632;2023-09-18T07:42:11;98329.38;;;23.76;73.34
21359;BME280;13506;50.852;20.632;2023-09-18T07:44:39;98343.34;;;24.13;72.61
21359;BME280;13506;50.852;20.632;2023-09-18T07:47:07;98342.66;;;24.39;71.88
21359;BME280;13506;50.852;20.632;2023-09-18T07:49:36;98342.34;;;24.69;68.38
21359;BME280;13506;50.852;20.632;2023-09-18T07:52:04;98341.88;;;24.04;66.92
21359;BME280;13506;50.852;20.632;2023-09-18T07:54:33;98339.88;;;23.78;67.06
21359;BME280;13506;50.852;20.632;2023-09-18T07:57:01;98339.22;;;24.04;66.97
21359;BME280;13506;50.852;20.632;2023-09-18T07:59:31;98336.13;;;24.48;67.81
21359;BME280;13506;50.852;20.632;2023-09-18T08:01:59;98338.66;;;24.83;67.29
21359;BME280;13506;50.852;20.632;2023-09-18T08:04:27;98326.34;;;25.09;65.71
21359;BME280;13506;50.852;20.632;2023-09-18T08:06:58;98322.88;;;24.34;65.44
21359;BME280;13506;50.852;20.632;2023-09-18T08:09:27;98312.19;;;24.34;65.19
21359;BME280;13506;50.852;20.632;2023-09-18T08:11:55;98316.44;;;24.83;66.60
21359;BME280;13506;50.852;20.632;2023-09-18T08:14:24;98322.19;;;24.80;64.93
21359;BME280;13506;50.852;20.632;2023-09-18T08:16:58;98329.41;;;24.86;64.51
21359;BME280;13506;50.852;20.632;2023-09-18T08:19:27;98319.56;;;25.00;64.67
21359;BME280;13506;50.852;20.632;2023-09-18T08:21:55;98326.75;;;25.32;63.31
21359;BME280;13506;50.852;20.632;2023-09-18T08:24:24;98330.25;;;25.53;62.39
21359;BME280;13506;50.852;20.632;2023-09-18T08:26:52;98312.72;;;25.84;62.50
21359;BME280;13506;50.852;20.632;2023-09-18T08:29:21;98316.47;;;25.43;63.02
21359;BME280;13506;50.852;20.632;2023-09-18T08:31:49;98323.59;;;25.96;63.58
21359;BME280;13506;50.852;20.632;2023-09-18T08:34:19;98325.84;;;26.50;59.37
21359;BME280;13506;50.852;20.632;2023-09-18T08:36:47;98329.03;;;26.79;58.35
21359;BME280;13506;50.852;20.632;2023-09-18T08:39:15;98318.56;;;26.64;58.28
21359;BME280;13506;50.852;20.632;2023-09-18T08:41:44;98314.91;;;27.16;58.09
21359;BME280;13506;50.852;20.632;2023-09-18T08:44:18;98317.78;;;26.05;58.03
21359;BME280;13506;50.852;20.632;2023-09-18T08:46:46;98309.81;;;25.79;59.17
21359;BME280;13506;50.852;20.632;2023-09-18T08:49:15;98310.97;;;26.09;59.10
21359;BME280;13506;50.852;20.632;2023-09-18T08:51:46;98303.69;;;26.62;58.63
21359;BME280;13506;50.852;20.632;2023-09-18T08:54:15;98304.16;;;26.90;57.90
21359;BME280;13506;50.852;20.632;2023-09-18T08:56:43;98303.66;;;26.68;58.05
21359;BME280;13506;50.852;20.632;2023-09-18T08:59:12;98292.28;;;26.41;56.40
21359;BME280;13506;50.852;20.632;2023-09-18T09:01:41;98294.41;;;26.26;56.75
21359;BME280;13506;50.852;20.632;2023-09-18T09:04:10;98297.34;;;26.56;57.70
21359;BME280;13506;50.852;20.632;2023-09-18T09:06:37;98289.88;;;26.20;58.45
21359;BME280;13506;50.852;20.632;2023-09-18T09:09:08;98279.09;;;26.33;58.18
21359;BME280;13506;50.852;20.632;2023-09-18T09:11:35;98290.84;;;25.87;59.68
21359;BME280;13506;50.852;20.632;2023-09-18T09:14:11;98277.31;;;26.13;59.83
21359;BME280;13506;50.852;20.632;2023-09-18T09:16:47;98276.78;;;25.91;59.82
21359;BME280;13506;50.852;20.632;2023-09-18T09:19:17;98288.06;;;25.15;60.32
21359;BME280;13506;50.852;20.632;2023-09-18T09:21:45;98277.16;;;24.15;61.73
21359;BME280;13506;50.852;20.632;2023-09-18T09:24:15;98272.16;;;23.99;61.88
21359;BME280;13506;50.852;20.632;2023-09-18T09:26:44;98274.00;;;23.98;62.23
21359;BME280;13506;50.852;20.632;2023-09-18T09:29:25;98263.09;;;24.55;61.19
21359;BME280;13506;50.852;20.632;2023-09-18T09:31:52;98262.91;;;24.76;59.79
21359;BME280;13506;50.852;20.632;2023-09-18T09:34:25;98252.81;;;24.98;59.98
21359;BME280;13506;50.852;20.632;2023-09-18T09:36:56;98253.88;;;25.10;58.89
21359;BME280;13506;50.852;20.632;2023-09-18T09:39:29;98257.75;;;24.81;59.51
21359;BME280;13506;50.852;20.632;2023-09-18T09:42:00;98252.19;;;24.63;60.24
21359;BME280;13506;50.852;20.632;2023-09-18T09:44:32;98250.53;;;24.75;60.07
21359;BME280;13506;50.852;20.632;2023-09-18T09:47:00;98254.06;;;24.89;58.50
21359;BME280;13506;50.852;20.632;2023-09-18T09:49:29;98265.34;;;24.51;59.00
21359;BME280;13506;50.852;20.632;2023-09-18T09:52:00;98244.16;;;24.49;60.18
21359;BME280;13506;50.852;20.632;2023-09-18T09:54:36;98244.38;;;24.68;60.44
21359;BME280;13506;50.852;20.632;2023-09-18T09:57:07;98241.28;;;24.78;58.64
21359;BME280;13506;50.852;20.632;2023-09-18T09:59:36;98246.88;;;25.16;59.60
21359;BME280;13506;50.852;20.632;2023-09-18T10:02:04;98239.63;;;24.90;60.70
21359;BME280;13506;50.852;20.632;2023-09-18T10:04:36;98234.88;;;25.39;58.52
21359;BME280;13506;50.852;20.632;2023-09-18T10:07:07;98253.63;;;25.32;57.04
21359;BME280;13506;50.852;20.632;2023-09-18T10:09:39;98248.47;;;25.44;57.95
21359;BME280;13506;50.852;20.632;2023-09-18T10:12:12;98243.13;;;24.70;59.10
21359;BME280;13506;50.852;20.632;2023-09-18T10:14:46;98236.13;;;24.49;58.55
21359;BME280;13506;50.852;20.632;2023-09-18T10:17:18;98238.81;;;24.63;58.49
21359;BME280;13506;50.852;20.632;2023-09-18T10:19:57;98237.97;;;24.76;59.04
21359;BME280;13506;50.852;20.632;2023-09-18T10:22:38;98236.38;;;25.15;57.62
21359;BME280;13506;50.852;20.632;2023-09-18T10:25:13;98240.47;;;24.90;56.87
21359;BME280;13506;50.852;20.632;2023-09-18T10:27:47;98226.47;;;24.95;56.31
21359;BME280;13506;50.852;20.632;2023-09-18T10:30:16;98234.84;;;25.59;55.95
21359;BME280;13506;50.852;20.632;2023-09-18T10:32:46;98237.78;;;25.24;55.40
21359;BME280;13506;50.852;20.632;2023-09-18T10:35:15;98224.53;;;25.62;54.20
21359;BME280;13506;50.852;20.632;2023-09-18T10:37:43;98227.34;;;25.81;54.41
21359;BME280;13506;50.852;20.632;2023-09-18T10:40:14;98228.09;;;26.01;51.87
21359;BME280;13506;50.852;20.632;2023-09-18T10:42:43;98217.16;;;25.96;52.51
21359;BME280;13506;50.852;20.632;2023-09-18T10:45:13;98231.66;;;25.10;53.48
21359;BME280;13506;50.852;20.632;2023-09-18T10:47:44;98221.75;;;24.97;54.54
21359;BME280;13506;50.852;20.632;2023-09-18T10:50:22;98223.41;;;25.05;55.07
21359;BME280;13506;50.852;20.632;2023-09-18T10:52:51;98210.22;;;25.10;55.05
21359;BME280;13506;50.852;20.632;2023-09-18T10:55:22;98200.28;;;25.37;54.86
21359;BME280;13506;50.852;20.632;2023-09-18T10:57:51;98201.09;;;25.38;55.20
21359;BME280;13506;50.852;20.632;2023-09-18T11:00:21;98194.56;;;25.07;56.63
21359;BME280;13506;50.852;20.632;2023-09-18T11:02:52;98186.13;;;25.17;57.21
21359;BME280;13506;50.852;20.632;2023-09-18T11:05:29;98183.00;;;25.33;57.21
21359;BME280;13506;50.852;20.632;2023-09-18T11:08:26;98200.88;;;25.32;57.26
21359;BME280;13506;50.852;20.632;2023-09-18T11:11:02;98187.16;;;24.69;58.36
21359;BME280;13506;50.852;20.632;2023-09-18T11:13:39;98186.06;;;24.17;59.49
21359;BME280;13506;50.852;20.632;2023-09-18T11:16:17;98176.56;;;24.07;59.70
21359;BME280;13506;50.852;20.632;2023-09-18T11:18:47;98184.50;;;24.42;58.65
21359;BME280;13506;50.852;20.632;2023-09-18T11:21:25;98187.78;;;24.58;58.14
21359;BME280;13506;50.852;20.632;2023-09-18T11:24:00;98177.91;;;24.85;57.40
21359;BME280;13506;50.852;20.632;2023-09-18T11:26:32;98188.16;;;24.95;58.35
21359;BME280;13506;50.852;20.632;2023-09-18T11:29:01;98182.66;;;24.76;58.54
21359;BME280;13506;50.852;20.632;2023-09-18T11:31:46;98172.13;;;24.81;58.59
21359;BME280;13506;50.852;20.632;2023-09-18T11:34:15;98176.66;;;24.54;59.84
21359;BME280;13506;50.852;20.632;2023-09-18T11:36:43;98173.38;;;24.52;58.42
21359;BME280;13506;50.852;20.632;2023-09-18T11:39:11;98172.09;;;24.35;58.26
21359;BME280;13506;50.852;20.632;2023-09-18T11:41:43;98174.59;;;24.49;58.82
21359;BME280;13506;50.852;20.632;2023-09-18T11:44:32;98181.00;;;24.62;57.90
21359;BME280;13506;50.852;20.632;2023-09-18T11:47:09;98179.34;;;24.61;57.93
21359;BME280;13506;50.852;20.632;2023-09-18T11:49:51;98164.50;;;24.85;57.72
21359;BME280;13506;50.852;20.632;2023-09-18T11:52:26;98171.13;;;24.49;58.50
21359;BME280;13506;50.852;20.632;2023-09-18T11:54:56;98164.94;;;24.48;59.02
21359;BME280;13506;50.852;20.632;2023-09-18T11:57:26;98161.56;;;24.00;59.14
21359;BME280;13506;50.852;20.632;2023-09-18T11:59:55;98171.50;;;24.46;57.93
21359;BME280;13506;50.852;20.632;2023-09-18T12:02:27;98161.25;;;24.43;58.90
21359;BME280;13506;50.852;20.632;2023-09-18T12:05:09;98160.41;;;24.56;58.41
21359;BME280;13506;50.852;20.632;2023-09-18T12:07:38;98158.56;;;24.36;58.32
21359;BME280;13506;50.852;20.632;2023-09-18T12:10:09;98161.00;;;24.71;58.80
21359;BME280;13506;50.852;20.632;2023-09-18T12:12:39;98161.00;;;24.91;58.38
21359;BME280;13506;50.852;20.632;2023-09-18T12:15:07;98157.94;;;24.47;58.47
21359;BME280;13506;50.852;20.632;2023-09-18T12:17:39;98156.28;;;24.80;57.85
21359;BME280;13506;50.852;20.632;2023-09-18T12:20:14;98142.03;;;24.92;57.59
21359;BME280;13506;50.852;20.632;2023-09-18T12:22:47;98136.69;;;25.12;57.34
21359;BME280;13506;50.852;20.632;2023-09-18T12:25:17;98136.53;;;24.47;57.94
21359;BME280;13506;50.852;20.632;2023-09-18T12:27:52;98129.75;;;24.78;56.49
21359;BME280;13506;50.852;20.632;2023-09-18T12:30:20;98124.06;;;25.26;55.82
21359;BME280;13506;50.852;20.632;2023-09-18T12:32:50;98121.28;;;25.01;56.12
21359;BME280;13506;50.852;20.632;2023-09-18T12:35:18;98112.25;;;24.82;57.81
21359;BME280;13506;50.852;20.632;2023-09-18T12:37:46;98114.91;;;24.69;58.15
21359;BME280;13506;50.852;20.632;2023-09-18T12:40:25;98108.75;;;24.08;60.36
21359;BME280;13506;50.852;20.632;2023-09-18T12:42:56;98105.66;;;24.25;59.39
21359;BME280;13506;50.852;20.632;2023-09-18T12:45:25;98101.97;;;24.19;58.94
21359;BME280;13506;50.852;20.632;2023-09-18T12:47:56;98104.00;;;24.30;56.73
21359;BME280;13506;50.852;20.632;2023-09-18T12:50:25;98094.38;;;24.36;57.93
21359;BME280;13506;50.852;20.632;2023-09-18T12:52:53;98094.19;;;24.44;56.88
21359;BME280;13506;50.852;20.632;2023-09-18T12:55:33;98091.66;;;24.63;57.12
21359;BME280;13506;50.852;20.632;2023-09-18T12:58:03;98099.88;;;24.81;54.44
21359;BME280;13506;50.852;20.632;2023-09-18T13:00:34;98080.50;;;24.86;53.63